Time;durP1;ratioP1;P1;durP2;ratioP2;P2;SDS_P1;SDS_P2;PMS_P1;PMS_P2;Temp;Humidity;BMP_temperature;BMP_pressure;BME280_temperature;BME280_humidity;BME280_pressure;Samples;Min_cycle;Max_cycle;Signal;HPM_P1;HPM_P2
2021/06/02 00:01:48;;;;;;;5.38;3.00;;;;;;;15.19;62.53;100066.94;5037363;28;20049;-73
2021/06/02 00:04:18;;;;;;;6.72;3.38;;;;;;;15.18;62.70;100066.09;5037652;28;20057;-73
2021/06/02 00:06:48;;;;;;;5.53;3.13;;;;;;;15.16;62.76;100061.81;5037141;28;20064;-73
2021/06/02 00:09:16;;;;;;;7.30;3.28;;;;;;;15.16;62.67;100061.81;5037335;28;20080;-73
2021/06/02 00:11:43;;;;;;;6.32;3.53;;;;;;;15.17;62.58;100060.84;5037146;28;20061;-73
2021/06/02 00:14:11;;;;;;;10.40;3.50;;;;;;;15.06;62.78;100067.09;5035777;28;20128;-73
2021/06/02 00:16:38;;;;;;;5.65;3.05;;;;;;;15.06;63.02;100064.41;5037238;28;20111;-73
2021/06/02 00:19:05;;;;;;;9.15;3.53;;;;;;;14.86;63.49;100056.13;5025338;28;20453;-73
2021/06/02 00:21:33;;;;;;;7.07;3.42;;;;;;;14.90;63.46;100059.41;5017143;28;20053;-73
2021/06/02 00:23:59;;;;;;;5.07;3.13;;;;;;;14.81;63.51;100055.63;5017343;28;20062;-73
2021/06/02 00:26:27;;;;;;;7.55;3.58;;;;;;;14.78;63.95;100051.38;5017224;28;20053;-73
2021/06/02 00:28:54;;;;;;;4.30;3.03;;;;;;;14.78;63.90;100059.44;5017069;28;20131;-73
2021/06/02 00:31:21;;;;;;;4.80;3.30;;;;;;;14.72;64.09;100057.22;5016272;28;20050;-73
2021/06/02 00:33:48;;;;;;;7.47;3.25;;;;;;;14.71;63.96;100052.81;5015927;28;20050;-73
2021/06/02 00:36:18;;;;;;;4.78;3.03;;;;;;;14.61;64.57;100060.75;5016079;28;20697;-73
2021/06/02 00:38:45;;;;;;;8.00;3.47;;;;;;;14.66;64.67;100055.03;5015973;28;20050;-73
2021/06/02 00:41:12;;;;;;;6.43;3.47;;;;;;;14.83;64.14;100060.91;5017242;28;20116;-73
2021/06/02 00:43:39;;;;;;;5.18;3.55;;;;;;;14.87;64.04;100060.53;5017121;28;20046;-73
2021/06/02 00:46:06;;;;;;;9.55;4.20;;;;;;;14.74;63.89;100043.69;5017098;28;20050;-73
2021/06/02 00:48:37;;;;;;;3.60;3.30;;;;;;;14.80;63.14;100040.50;5016050;28;20097;-73
2021/06/02 00:51:04;;;;;;;5.78;3.25;;;;;;;14.99;62.65;100052.44;5032346;28;20053;-73
2021/06/02 00:53:34;;;;;;;4.32;3.53;;;;;;;14.87;62.96;100044.41;5016598;28;20063;-73
2021/06/02 00:56:03;;;;;;;4.57;3.65;;;;;;;14.97;62.39;100049.03;5016871;28;20065;-73
2021/06/02 00:58:36;;;;;;;4.82;3.42;;;;;;;14.87;62.18;100046.25;5016750;28;20050;-73
2021/06/02 01:01:05;;;;;;;5.20;3.60;;;;;;;14.89;61.90;100026.34;5016539;28;20100;-73
2021/06/02 01:03:35;;;;;;;5.80;3.65;;;;;;;14.87;62.93;100028.28;5016758;28;20112;-73
2021/06/02 01:06:02;;;;;;;6.82;3.60;;;;;;;14.87;62.49;100038.19;5015113;28;20123;-72
2021/06/02 01:08:30;;;;;;;4.65;3.30;;;;;;;14.69;63.44;100044.03;5016396;28;20460;-73
2021/06/02 01:10:57;;;;;;;4.32;3.15;;;;;;;14.82;63.18;100040.38;5016473;28;20096;-72
2021/06/02 01:13:25;;;;;;;7.57;3.80;;;;;;;14.71;63.81;100043.91;5016218;28;20046;-72
2021/06/02 01:15:52;;;;;;;3.90;3.28;;;;;;;14.65;63.77;100042.56;5016449;28;20093;-74
2021/06/02 01:18:20;;;;;;;8.77;3.53;;;;;;;14.54;64.01;100040.72;5021273;28;20158;-74
2021/06/02 01:20:48;;;;;;;5.80;3.55;;;;;;;14.53;63.48;100034.53;5036315;28;20053;-73
2021/06/02 01:23:16;;;;;;;4.00;3.30;;;;;;;14.57;63.66;100039.63;5018592;28;20100;-74
2021/06/02 01:25:44;;;;;;;7.22;3.55;;;;;;;14.67;62.02;100037.94;5035140;28;20103;-73
2021/06/02 01:28:11;;;;;;;4.80;3.75;;;;;;;14.77;61.42;100038.91;5034487;28;20398;-74
2021/06/02 01:30:38;;;;;;;6.05;3.75;;;;;;;14.71;61.77;100034.00;5035917;28;20053;-72
2021/06/02 01:33:11;;;;;;;6.53;3.75;;;;;;;14.64;62.54;100038.16;5018253;28;20049;-72
2021/06/02 01:35:54;;;;;;;4.70;3.28;;;;;;;14.60;62.67;100036.72;5035168;28;20311;-74
2021/06/02 01:38:51;;;;;;;5.10;3.60;;;;;;;14.52;62.57;100027.44;5035539;28;20053;-72
2021/06/02 01:41:30;;;;;;;7.70;3.95;;;;;;;14.57;62.10;100036.94;5035655;28;20057;-73
2021/06/02 01:44:18;;;;;;;6.00;3.50;;;;;;;14.47;62.49;100037.69;5035561;28;20069;-76
2021/06/02 01:46:57;;;;;;;9.35;3.78;;;;;;;14.41;62.39;100038.19;5035488;28;20076;-72
2021/06/02 01:49:27;;;;;;;8.18;3.42;;;;;;;14.38;62.32;100030.34;5035668;28;20053;-72
2021/06/02 01:52:09;;;;;;;5.30;3.45;;;;;;;14.37;62.74;100034.88;5035353;28;20065;-75
2021/06/02 01:54:57;;;;;;;5.68;3.28;;;;;;;14.33;62.89;100037.94;5035201;28;20054;-75
2021/06/02 01:57:30;;;;;;;4.30;3.22;;;;;;;14.29;62.93;100033.78;5035601;28;20045;-75
2021/06/02 02:00:15;;;;;;;4.10;2.95;;;;;;;14.21;63.06;100029.00;5035417;28;20355;-75
2021/06/02 02:03:06;;;;;;;5.20;3.40;;;;;;;14.16;63.74;100029.38;5035319;28;20053;-75
2021/06/02 02:05:48;;;;;;;5.53;3.28;;;;;;;14.12;63.20;100033.28;5037533;28;20049;-74
2021/06/02 02:08:50;;;;;;;4.50;3.17;;;;;;;14.05;63.74;100024.00;5038924;28;20061;-74
2021/06/02 02:11:39;;;;;;;5.78;3.47;;;;;;;14.02;64.11;100027.78;5037210;28;20445;-74
2021/06/02 02:14:12;;;;;;;5.85;3.20;;;;;;;13.99;64.37;100028.88;5038632;28;20136;-74
2021/06/02 02:16:51;;;;;;;3.08;2.78;;;;;;;13.94;63.90;100020.31;5035411;28;20083;-74
2021/06/02 02:19:58;;;;;;;4.80;3.33;;;;;;;13.94;63.90;100019.47;5021730;28;20046;-72
2021/06/02 02:22:40;;;;;;;4.30;3.05;;;;;;;13.88;64.26;100023.47;5015791;28;20046;-75
2021/06/02 02:25:14;;;;;;;7.25;3.25;;;;;;;13.86;64.67;100028.09;5015552;28;20049;-71
2021/06/02 02:27:56;;;;;;;5.28;3.33;;;;;;;13.85;64.39;100026.41;5014141;28;20075;-74
2021/06/02 02:30:47;;;;;;;6.40;3.42;;;;;;;13.83;64.63;100025.66;5014594;28;20383;-72
2021/06/02 02:33:43;;;;;;;8.25;3.03;;;;;;;13.80;64.66;100024.09;5015171;28;20096;-72
2021/06/02 02:36:39;;;;;;;5.35;3.05;;;;;;;13.75;64.93;100025.38;5016314;28;20053;-72
2021/06/02 02:39:43;;;;;;;5.72;3.22;;;;;;;13.76;64.85;100027.09;5019457;28;20108;-72
2021/06/02 02:42:27;;;;;;;6.72;2.88;;;;;;;13.71;64.54;100033.69;5019182;28;20046;-74
2021/06/02 02:45:03;;;;;;;5.25;3.15;;;;;;;13.66;64.56;100022.44;5019278;28;20116;-72
2021/06/02 02:47:40;;;;;;;5.40;2.80;;;;;;;13.63;64.66;100036.09;5019080;28;20054;-73
2021/06/02 02:50:25;;;;;;;7.00;2.80;;;;;;;13.71;64.30;100035.50;5017896;28;20066;-73
2021/06/02 02:53:10;;;;;;;4.47;2.80;;;;;;;13.67;64.18;100029.50;5018770;28;20054;-75
2021/06/02 02:55:38;;;;;;;3.72;2.85;;;;;;;13.68;64.14;100028.53;5017830;28;20432;-73
2021/06/02 02:58:30;;;;;;;6.65;2.97;;;;;;;13.68;63.22;100030.38;5019202;28;20075;-76
2021/06/02 03:01:04;;;;;;;3.20;2.60;;;;;;;13.66;63.88;100019.75;5019009;28;20402;-74
2021/06/02 03:03:43;;;;;;;3.45;2.67;;;;;;;13.62;63.78;100022.81;5018002;28;20062;-73
2021/06/02 03:06:41;;;;;;;4.40;2.67;;;;;;;13.69;63.73;100027.56;5018754;28;20112;-74
2021/06/02 03:09:38;;;;;;;4.57;2.85;;;;;;;13.76;62.16;100024.41;5018682;28;20053;-75
2021/06/02 03:12:20;;;;;;;4.43;2.65;;;;;;;13.78;62.62;100027.84;5015877;28;20099;-75
2021/06/02 03:14:55;;;;;;;5.93;2.92;;;;;;;13.80;62.90;100028.56;5018455;28;20068;-75
2021/06/02 03:17:40;;;;;;;3.55;2.40;;;;;;;13.87;61.16;100023.56;5017873;28;20065;-75
2021/06/02 03:20:23;;;;;;;3.53;2.30;;;;;;;13.81;62.24;100015.06;5018621;28;20061;-75
2021/06/02 03:23:21;;;;;;;6.10;2.72;;;;;;;13.87;61.79;100023.56;5018486;28;20493;-74
2021/06/02 03:26:06;;;;;;;3.03;2.72;;;;;;;13.82;62.40;100026.63;5018703;28;20135;-74
2021/06/02 03:28:59;;;;;;;3.63;2.35;;;;;;;13.81;62.18;100023.09;5017597;28;20045;-73
2021/06/02 03:32:02;;;;;;;4.63;2.45;;;;;;;13.76;62.33;100021.72;5025625;28;20087;-74
2021/06/02 03:34:31;;;;;;;4.35;2.80;;;;;;;13.79;62.02;100024.19;5035431;28;20045;-73
2021/06/02 03:37:13;;;;;;;3.75;2.53;;;;;;;13.78;61.65;100030.53;5038000;28;20358;-73
2021/06/02 03:39:55;;;;;;;3.30;2.63;;;;;;;13.76;62.22;100027.97;5038036;28;20057;-74
2021/06/02 03:42:31;;;;;;;3.67;3.00;;;;;;;13.75;62.71;100025.38;5037904;28;20423;-75
2021/06/02 03:45:18;;;;;;;7.13;2.50;;;;;;;13.66;62.46;100013.53;5038005;28;20053;-74
2021/06/02 03:48:03;;;;;;;4.80;2.78;;;;;;;13.70;62.40;100031.97;5017156;28;20089;-73
2021/06/02 03:50:48;;;;;;;3.70;2.58;;;;;;;13.75;62.15;100036.13;5018162;28;20050;-73
2021/06/02 03:53:30;;;;;;;6.55;3.20;;;;;;;13.71;63.22;100028.31;5017721;28;20096;-74
2021/06/02 03:56:15;;;;;;;4.82;3.22;;;;;;;13.76;62.79;100027.97;5017632;28;20058;-74
2021/06/02 03:59:19;;;;;;;7.63;3.05;;;;;;;13.73;63.37;100035.38;5017483;28;20183;-73
2021/06/02 04:01:57;;;;;;;2.40;2.17;;;;;;;13.52;63.89;100012.75;5017296;28;20423;-72
2021/06/02 04:05:05;;;;;;;6.03;2.33;;;;;;;13.71;63.41;100031.00;5016261;28;20183;-73
2021/06/02 04:08:08;;;;;;;4.00;2.08;;;;;;;13.81;63.05;100031.16;5006633;28;20053;-72
2021/06/02 04:11:03;;;;;;;7.35;2.45;;;;;;;13.81;63.28;100025.78;5025376;28;20050;-73
2021/06/02 04:14:04;;;;;;;5.55;2.28;;;;;;;13.88;62.41;100028.84;5026394;28;20061;-75
2021/06/02 04:16:37;;;;;;;6.43;2.72;;;;;;;13.92;63.01;100024.94;5031059;28;20351;-72
2021/06/02 04:19:06;;;;;;;3.03;2.50;;;;;;;13.96;62.68;100026.41;5028516;28;20046;-73
2021/06/02 04:21:36;;;;;;;7.00;2.95;;;;;;;13.98;62.75;100027.16;5019742;28;20104;-75
2021/06/02 04:24:05;;;;;;;2.58;2.38;;;;;;;14.05;62.37;100026.69;5016400;28;20116;-76
2021/06/02 04:26:34;;;;;;;7.38;2.50;;;;;;;14.10;62.11;100025.34;5016225;28;20050;-76
2021/06/02 04:29:06;;;;;;;3.30;2.38;;;;;;;14.11;61.99;100015.47;5022658;28;20103;-75
2021/06/02 04:31:34;;;;;;;3.67;2.40;;;;;;;14.27;60.51;100020.47;5027682;28;20103;-75
2021/06/02 04:34:01;;;;;;;4.72;2.63;;;;;;;14.35;60.45;100025.25;5024881;28;20351;-76
2021/06/02 04:36:30;;;;;;;5.45;2.40;;;;;;;14.45;60.61;100025.38;5017037;28;20108;-74
2021/06/02 04:38:59;;;;;;;8.00;2.20;;;;;;;14.62;58.32;100024.00;5026761;28;20382;-77
2021/06/02 04:41:27;;;;;;;3.70;2.13;;;;;;;14.75;56.61;100032.81;5029126;28;20053;-76
2021/06/02 04:43:57;;;;;;;4.45;2.20;;;;;;;14.85;56.89;100024.88;5036876;28;20046;-72
2021/06/02 04:46:24;;;;;;;3.60;2.13;;;;;;;14.95;57.47;100027.66;5035505;28;20081;-75
2021/06/02 04:48:52;;;;;;;2.75;2.10;;;;;;;15.07;56.12;100023.09;5036798;28;20324;-73
2021/06/02 04:52:02;;;;;;;3.45;2.22;;;;;;;15.15;56.08;100030.56;5036563;28;20103;-74
2021/06/02 04:55:19;;;;;;;4.85;2.35;;;;;;;15.32;53.33;100019.22;5036672;28;20111;-75
2021/06/02 04:58:14;;;;;;;4.55;2.25;;;;;;;15.44;52.92;100014.69;5036929;28;20074;-74
2021/06/02 05:00:59;;;;;;;5.80;2.28;;;;;;;15.63;51.99;100021.16;5036618;28;20045;-72
2021/06/02 05:03:40;;;;;;;3.95;2.22;;;;;;;15.65;52.71;100021.06;5036569;28;20061;-74
2021/06/02 05:06:24;;;;;;;2.78;2.10;;;;;;;15.75;53.43;100020.13;5024922;28;20171;-73
2021/06/02 05:09:07;;;;;;;2.40;1.98;;;;;;;15.73;53.05;100023.94;5020624;28;20050;-74
2021/06/02 05:12:02;;;;;;;2.63;2.17;;;;;;;15.74;52.76;100021.13;5016696;28;20061;-72
2021/06/02 05:14:57;;;;;;;5.57;2.58;;;;;;;15.77;53.19;100028.09;5016277;28;20453;-74
2021/06/02 05:17:28;;;;;;;2.30;2.10;;;;;;;15.88;51.79;100028.03;5016247;28;20053;-75
2021/06/02 05:20:21;;;;;;;4.60;2.03;;;;;;;15.99;51.73;100028.97;5034484;28;20099;-72
2021/06/02 05:23:13;;;;;;;7.55;2.33;;;;;;;16.05;51.82;100028.44;5036319;28;20324;-75
2021/06/02 05:26:13;;;;;;;5.03;2.50;;;;;;;16.13;52.07;100028.63;5028916;28;20049;-74
2021/06/02 05:29:14;;;;;;;4.40;2.13;;;;;;;16.13;52.72;100033.16;5036034;28;20358;-74
2021/06/02 05:32:00;;;;;;;6.70;2.33;;;;;;;16.17;52.09;100033.75;5035805;28;20127;-73
2021/06/02 05:34:54;;;;;;;7.75;2.30;;;;;;;16.26;51.93;100036.50;5021049;28;20100;-73
2021/06/02 05:37:21;;;;;;;4.07;2.60;;;;;;;16.34;51.12;100037.66;5016126;28;20104;-76
2021/06/02 05:39:56;;;;;;;5.10;2.17;;;;;;;16.41;51.74;100038.81;5016231;28;20058;-75
2021/06/02 05:42:35;;;;;;;9.00;2.53;;;;;;;16.46;51.48;100039.28;5015919;28;20049;-76
2021/06/02 05:45:08;;;;;;;2.70;2.05;;;;;;;16.52;51.38;100029.78;5014921;28;20054;-72
2021/06/02 05:47:48;;;;;;;5.97;2.20;;;;;;;16.59;51.03;100044.44;5015759;28;20109;-74
2021/06/02 05:51:02;;;;;;;4.72;2.33;;;;;;;16.72;50.73;100046.03;5016056;28;20058;-76
2021/06/02 05:53:36;;;;;;;7.07;2.50;;;;;;;16.91;49.74;100034.44;5013926;28;20297;-76
2021/06/02 05:56:20;;;;;;;4.72;2.50;;;;;;;16.99;50.06;100036.47;5016757;28;20100;-77
2021/06/02 05:59:02;;;;;;;4.05;2.70;;;;;;;17.05;50.11;100036.78;5025513;28;20056;-74
2021/06/02 06:02:07;;;;;;;5.03;2.00;;;;;;;17.19;48.29;100035.53;5035648;28;20104;-74
2021/06/02 06:05:10;;;;;;;5.85;2.75;;;;;;;17.37;47.79;100041.09;5029459;28;20049;-75
2021/06/02 06:08:14;;;;;;;8.75;2.00;;;;;;;17.44;47.69;100038.66;5031974;28;20509;-81
2021/06/02 06:11:17;;;;;;;6.53;2.78;;;;;;;17.54;48.30;100035.13;5015370;28;20050;-76
2021/06/02 06:13:50;;;;;;;8.13;2.20;;;;;;;17.59;48.57;100043.66;5015723;28;20100;-72
2021/06/02 06:16:38;;;;;;;11.02;2.20;;;;;;;17.73;48.11;100042.34;5024625;28;20049;-73
2021/06/02 06:19:32;;;;;;;3.92;2.22;;;;;;;17.86;47.14;100040.22;5022967;28;20061;-72
2021/06/02 06:22:44;;;;;;;6.05;2.42;;;;;;;18.01;47.17;100037.91;5014756;28;20060;-73
2021/06/02 06:25:16;;;;;;;4.30;2.15;;;;;;;18.10;46.29;100024.56;5012766;28;20544;-74
2021/06/02 06:27:49;;;;;;;4.40;1.92;;;;;;;18.04;47.29;100032.22;5014472;28;20497;-73
2021/06/02 06:30:38;;;;;;;11.88;2.55;;;;;;;18.34;45.50;100036.72;5015206;28;20050;-73
2021/06/02 06:33:11;;;;;;;5.65;2.00;;;;;;;18.39;46.46;100034.41;5015023;28;20112;-71
2021/06/02 06:35:41;;;;;;;3.40;2.20;;;;;;;18.51;46.32;100046.75;5015151;28;20180;-74
2021/06/02 06:38:12;;;;;;;11.30;2.47;;;;;;;18.51;46.14;100021.59;5015115;28;20050;-72
2021/06/02 06:40:40;;;;;;;6.00;2.22;;;;;;;18.67;45.50;100031.72;5021791;28;20435;-75
2021/06/02 06:43:12;;;;;;;3.53;2.20;;;;;;;18.57;46.78;100039.88;5022180;28;20092;-77
2021/06/02 06:45:40;;;;;;;6.10;2.40;;;;;;;18.65;46.95;100036.44;5015414;28;20111;-75
2021/06/02 06:48:17;;;;;;;3.47;2.00;;;;;;;18.69;46.61;100035.16;5028099;28;20087;-74
2021/06/02 06:50:54;;;;;;;4.32;2.20;;;;;;;18.77;46.36;100035.25;5032817;28;20049;-74
2021/06/02 06:53:22;;;;;;;6.43;2.50;;;;;;;18.70;47.72;100035.00;5032488;28;20065;-74
2021/06/02 06:55:52;;;;;;;6.38;2.22;;;;;;;18.73;47.60;100031.13;5049194;28;20049;-73
2021/06/02 06:58:20;;;;;;;6.22;2.50;;;;;;;18.91;46.33;100028.47;5034494;28;20137;-75
2021/06/02 07:00:47;;;;;;;3.35;2.00;;;;;;;18.99;46.89;100035.84;5034337;28;20398;-74
2021/06/02 07:03:15;;;;;;;4.53;2.20;;;;;;;19.10;45.54;100034.81;5034576;28;20060;-73
2021/06/02 07:05:43;;;;;;;8.65;2.30;;;;;;;19.32;44.38;100029.94;5034672;28;20131;-74
2021/06/02 07:08:11;;;;;;;5.28;2.00;;;;;;;19.39;45.22;100031.06;5034466;28;20050;-75
2021/06/02 07:10:37;;;;;;;7.53;2.13;;;;;;;19.38;45.57;100023.91;5033730;28;20103;-74
2021/06/02 07:13:09;;;;;;;4.00;1.75;;;;;;;19.35;46.56;100030.47;5034627;28;20054;-74
2021/06/02 07:15:36;;;;;;;5.85;2.30;;;;;;;19.45;45.61;100029.56;5034553;28;20164;-74
2021/06/02 07:18:03;;;;;;;5.70;2.67;;;;;;;19.49;45.40;100033.66;5031400;28;20050;-74
2021/06/02 07:20:32;;;;;;;6.25;2.00;;;;;;;19.49;46.22;100028.25;5014748;28;20112;-74
2021/06/02 07:23:00;;;;;;;5.22;1.95;;;;;;;19.63;46.63;100026.84;5015501;28;20057;-72
2021/06/02 07:25:28;;;;;;;2.75;1.80;;;;;;;19.57;46.29;100030.19;5018716;28;20050;-73
2021/06/02 07:27:59;;;;;;;9.77;2.08;;;;;;;19.79;45.66;100031.56;5018233;28;20054;-74
2021/06/02 07:30:26;;;;;;;;;;;;;;;19.95;45.44;100026.28;5019138;28;20079;-72
2021/06/02 07:32:54;;;;;;;2.72;1.95;;;;;;;20.01;46.07;100022.09;5018358;28;19964;-73
2021/06/02 07:35:21;;;;;;;4.88;2.22;;;;;;;20.08;43.91;100014.16;5001244;28;20054;-74
2021/06/02 07:37:48;;;;;;;4.85;2.10;;;;;;;20.22;44.62;100018.16;5018148;28;20053;-74
2021/06/02 07:40:15;;;;;;;6.82;1.90;;;;;;;20.13;45.49;100009.13;5018358;28;20382;-73
2021/06/02 07:42:42;;;;;;;4.78;2.10;;;;;;;20.35;44.18;100020.44;5018271;28;20478;-73
2021/06/02 07:45:10;;;;;;;9.15;2.17;;;;;;;20.29;45.44;100018.34;5017039;28;20383;-73
2021/06/02 07:47:36;;;;;;;4.32;1.83;;;;;;;20.21;45.71;100020.00;5018056;28;20046;-72
2021/06/02 07:50:04;;;;;;;7.07;2.08;;;;;;;20.21;46.05;100017.31;5017212;28;20046;-73
2021/06/02 07:52:31;;;;;;;3.97;1.90;;;;;;;20.39;43.54;100016.38;5017950;28;20057;-73
2021/06/02 07:54:58;;;;;;;3.85;2.20;;;;;;;20.53;44.16;100006.78;5017993;28;20104;-73
2021/06/02 07:57:25;;;;;;;8.10;2.22;;;;;;;20.72;41.71;100000.28;5016737;28;20061;-73
2021/06/02 07:59:52;;;;;;;3.45;1.90;;;;;;;20.75;41.50;100008.06;5017667;28;20069;-73
2021/06/02 08:02:19;;;;;;;5.00;2.00;;;;;;;20.99;40.53;100011.03;5017655;28;20077;-72
2021/06/02 08:04:45;;;;;;;3.63;2.08;;;;;;;21.06;42.24;100008.50;5017881;28;20050;-74
2021/06/02 08:07:13;;;;;;;4.28;1.80;;;;;;;21.07;38.06;100007.50;5017762;28;20073;-76
2021/06/02 08:09:39;;;;;;;9.23;1.90;;;;;;;21.08;39.95;100015.47;5017496;28;20072;-73
2021/06/02 08:12:10;;;;;;;3.15;1.85;;;;;;;21.26;38.93;100015.34;5017740;28;20398;-73
2021/06/02 08:14:37;;;;;;;11.55;2.38;;;;;;;21.34;39.00;100013.66;5017689;28;20124;-73
2021/06/02 08:17:04;;;;;;;5.10;2.00;;;;;;;21.35;39.65;99999.06;5017411;28;20394;-73
2021/06/02 08:19:31;;;;;;;6.40;1.73;;;;;;;21.54;39.63;100009.59;5032413;28;20050;-73
2021/06/02 08:21:57;;;;;;;4.43;2.35;;;;;;;21.59;40.21;100006.38;5037082;28;20439;-73
2021/06/02 08:24:24;;;;;;;3.78;1.67;;;;;;;21.72;40.32;100007.75;5036212;28;20060;-73
2021/06/02 08:26:51;;;;;;;4.43;1.88;;;;;;;21.93;38.58;100007.22;5037363;28;20045;-73
2021/06/02 08:29:17;;;;;;;5.05;1.88;;;;;;;22.06;37.06;99999.38;5019515;28;20049;-71
2021/06/02 08:31:44;;;;;;;2.42;1.60;;;;;;;22.13;38.81;100013.13;5037191;28;20319;-75
2021/06/02 08:34:11;;;;;;;4.88;1.98;;;;;;;22.20;38.34;100002.41;5036751;28;20122;-73
2021/06/02 08:36:38;;;;;;;6.25;1.77;;;;;;;22.30;39.64;100000.34;5036851;28;20107;-74
2021/06/02 08:39:06;;;;;;;4.47;2.08;;;;;;;22.38;36.14;100008.47;5036921;28;20510;-74
2021/06/02 08:41:34;;;;;;;4.35;1.90;;;;;;;22.34;37.10;100009.84;5036790;28;20054;-74
2021/06/02 08:44:02;;;;;;;3.20;1.92;;;;;;;22.41;37.98;100009.13;5036822;28;20123;-73
2021/06/02 08:46:28;;;;;;;5.18;1.60;;;;;;;22.56;36.50;100012.88;5036828;28;20057;-72
2021/06/02 08:49:08;;;;;;;9.82;1.90;;;;;;;22.59;37.71;100017.94;5035613;28;20053;-72
2021/06/02 08:51:36;;;;;;;2.55;1.70;;;;;;;22.78;35.59;100008.50;5036879;28;20061;-76
2021/06/02 08:54:03;;;;;;;4.80;1.50;;;;;;;22.85;35.83;100013.22;5035240;28;20084;-78
2021/06/02 08:56:39;;;;;;;3.80;1.60;;;;;;;22.97;31.68;100014.53;5030000;28;20107;-72
2021/06/02 08:59:06;;;;;;;3.08;1.40;;;;;;;23.11;31.09;100003.91;5036440;28;20053;-72
2021/06/02 09:01:33;;;;;;;3.22;1.30;;;;;;;23.24;29.51;99998.72;5035530;28;20747;-72
2021/06/02 09:04:09;;;;;;;2.42;1.58;;;;;;;23.31;29.92;99996.16;5036622;28;20486;-75
2021/06/02 09:06:39;;;;;;;2.65;1.40;;;;;;;23.43;29.45;100005.56;5036456;28;20045;-73
2021/06/02 09:09:06;;;;;;;4.67;1.60;;;;;;;23.47;31.60;100003.31;5036059;28;20423;-73
2021/06/02 09:11:43;;;;;;;7.13;1.45;;;;;;;23.52;32.80;100006.34;5036246;28;20426;-77
2021/06/02 09:14:31;;;;;;;4.60;1.95;;;;;;;23.62;29.02;99997.94;5033059;28;20053;-75
2021/06/02 09:17:02;;;;;;;4.40;1.23;;;;;;;23.69;29.45;100009.78;5031585;28;20188;-75
2021/06/02 09:19:33;;;;;;;3.50;1.40;;;;;;;23.82;29.66;100021.94;5016562;28;20386;-76
2021/06/02 09:22:00;;;;;;;9.25;1.60;;;;;;;23.73;27.77;100010.25;5018942;28;20041;-76
2021/06/02 09:24:45;;;;;;;2.85;1.40;;;;;;;23.66;29.20;100015.63;5024703;28;20041;-74
2021/06/02 09:27:12;;;;;;;2.45;1.27;;;;;;;23.82;28.41;100011.03;5034974;28;20053;-77
2021/06/02 09:29:52;;;;;;;1.77;1.40;;;;;;;23.93;28.45;100021.50;5021471;28;20127;-75
2021/06/02 09:32:22;;;;;;;2.10;1.42;;;;;;;24.11;26.72;100009.41;5031568;28;20198;-73
2021/06/02 09:34:57;;;;;;;2.22;1.35;;;;;;;24.07;29.05;100003.50;5035746;28;20436;-73
2021/06/02 09:37:24;;;;;;;3.45;1.60;;;;;;;24.34;27.65;100008.50;5034977;28;20054;-72
2021/06/02 09:39:54;;;;;;;2.03;1.38;;;;;;;24.37;27.69;99997.19;5035729;28;20450;-73
2021/06/02 09:42:23;;;;;;;1.63;1.40;;;;;;;24.39;28.09;100000.56;5025883;28;20053;-76
2021/06/02 09:45:10;;;;;;;5.78;1.35;;;;;;;24.46;28.41;100003.41;5015727;28;20053;-78
2021/06/02 09:48:00;;;;;;;5.00;1.48;;;;;;;24.45;27.66;99988.09;5030523;28;20057;-74
2021/06/02 09:50:27;;;;;;;2.85;1.30;;;;;;;24.58;26.61;99999.16;5034180;28;20061;-75
2021/06/02 09:52:55;;;;;;;2.50;1.50;;;;;;;24.55;27.05;99994.94;5035537;28;20053;-77
2021/06/02 09:55:33;;;;;;;4.00;1.30;;;;;;;24.52;28.58;99989.84;5035683;28;20045;-77
2021/06/02 09:58:05;;;;;;;2.40;1.17;;;;;;;24.77;28.84;100000.44;5034741;28;20120;-77
2021/06/02 10:00:41;;;;;;;1.88;1.20;;;;;;;24.81;26.20;100003.66;5035531;28;20057;-78
2021/06/02 10:03:14;;;;;;;4.28;1.25;;;;;;;24.91;26.84;99995.19;5034524;28;20053;-77
2021/06/02 10:05:46;;;;;;;2.33;1.40;;;;;;;25.00;28.71;99991.28;5035961;28;20045;-76
2021/06/02 10:08:31;;;;;;;3.67;1.35;;;;;;;25.16;26.38;99992.09;5035161;28;20099;-75
2021/06/02 10:11:13;;;;;;;2.03;1.52;;;;;;;25.23;29.17;99985.66;5035532;28;20049;-76
2021/06/02 10:13:40;;;;;;;1.30;1.20;;;;;;;25.46;26.29;99990.09;5023277;28;20042;-76
2021/06/02 10:16:08;;;;;;;3.08;1.48;;;;;;;25.55;27.10;99992.69;5032033;28;20501;-78
2021/06/02 10:18:38;;;;;;;3.53;1.58;;;;;;;25.53;27.18;99979.22;5027768;28;20424;-76
2021/06/02 10:21:08;;;;;;;1.77;1.30;;;;;;;25.73;27.91;99989.47;5015615;28;20355;-80
2021/06/02 10:23:43;;;;;;;2.90;1.20;;;;;;;25.68;26.75;99967.34;5033538;28;20053;-84
2021/06/02 10:26:14;;;;;;;3.08;1.70;;;;;;;25.84;27.17;99991.69;5026120;28;20093;-83
2021/06/02 10:28:43;;;;;;;3.40;1.20;;;;;;;25.89;27.23;99982.88;5028065;28;20343;-77
2021/06/02 10:31:12;;;;;;;3.05;1.48;;;;;;;25.95;27.91;99982.09;5025454;28;20050;-79
2021/06/02 10:33:41;;;;;;;6.70;1.85;;;;;;;25.92;27.26;99976.16;5023879;28;20045;-75
2021/06/02 10:36:10;;;;;;;4.20;1.60;;;;;;;25.96;28.53;99974.72;5032068;28;20053;-75
2021/06/02 10:38:45;;;;;;;5.47;1.50;;;;;;;26.27;28.99;99987.16;5025432;28;20424;-77
2021/06/02 10:41:34;;;;;;;3.20;1.33;;;;;;;26.30;27.45;99989.47;5023854;28;20423;-79
2021/06/02 10:44:07;;;;;;;8.02;1.50;;;;;;;26.27;28.31;99973.47;5025529;28;20050;-84
2021/06/02 10:46:41;;;;;;;3.83;1.48;;;;;;;26.40;28.82;99973.53;5023987;28;20443;-81
2021/06/02 10:49:08;;;;;;;5.72;1.40;;;;;;;26.87;26.86;99981.09;5021998;28;20049;-80
2021/06/02 10:51:38;;;;;;;4.63;1.52;;;;;;;26.90;27.69;99980.69;5029238;28;20053;-79
2021/06/02 10:54:17;;;;;;;4.72;1.65;;;;;;;26.96;25.78;99979.03;5029675;28;20112;-80
2021/06/02 10:56:56;;;;;;;3.88;1.50;;;;;;;26.97;24.97;99978.81;5030499;28;20096;-79
2021/06/02 10:59:26;;;;;;;2.03;1.33;;;;;;;27.04;26.12;99983.47;5037897;28;20054;-79
2021/06/02 11:02:02;;;;;;;4.43;1.30;;;;;;;26.91;24.65;99976.06;5036387;28;20103;-78
2021/06/02 11:04:30;;;;;;;2.83;1.38;;;;;;;27.02;24.29;99969.97;5032894;28;20075;-79
2021/06/02 11:07:20;;;;;;;2.25;1.50;;;;;;;27.04;25.45;99975.25;5029439;28;20057;-75
2021/06/02 11:10:11;;;;;;;2.42;1.40;;;;;;;27.17;25.55;99968.97;5041899;28;20496;-74
2021/06/02 11:12:47;;;;;;;4.72;1.50;;;;;;;27.38;26.18;99963.31;5029909;28;20053;-75
2021/06/02 11:15:45;;;;;;;3.08;1.30;;;;;;;27.67;25.20;99968.59;5031523;28;20136;-74
2021/06/02 11:18:17;;;;;;;1.77;1.25;;;;;;;27.76;23.77;99956.38;5043785;28;20482;-74
2021/06/02 11:20:45;;;;;;;2.03;1.30;;;;;;;27.84;24.19;99957.19;5026619;28;20147;-73
2021/06/02 11:23:18;;;;;;;3.78;2.00;;;;;;;27.89;24.48;99951.91;5027342;28;20049;-75
2021/06/02 11:25:46;;;;;;;4.13;1.63;;;;;;;28.03;25.61;99952.72;5025635;28;20515;-73
2021/06/02 11:28:42;;;;;;;3.75;1.40;;;;;;;28.39;26.91;99950.53;5025905;28;20052;-72
2021/06/02 11:31:23;;;;;;;2.47;1.23;;;;;;;28.49;23.75;99956.41;5029487;28;20042;-72
2021/06/02 11:33:51;;;;;;;2.08;1.38;;;;;;;28.52;24.60;99953.22;5029185;28;20104;-74
2021/06/02 11:36:18;;;;;;;2.75;1.58;;;;;;;28.58;23.40;99951.50;5008908;28;20050;-75
2021/06/02 11:38:45;;;;;;;2.50;1.42;;;;;;;28.52;23.73;99950.47;5026149;28;20080;-73
2021/06/02 11:41:13;;;;;;;1.73;1.38;;;;;;;28.38;23.70;99946.13;5031045;28;20329;-75
2021/06/02 11:43:59;;;;;;;1.73;1.35;;;;;;;28.59;23.29;99944.94;5025983;28;20054;-74
2021/06/02 11:46:48;;;;;;;2.95;1.17;;;;;;;28.91;25.32;99946.94;5018338;28;20041;-80
2021/06/02 11:49:29;;;;;;;4.55;1.30;;;;;;;29.09;23.21;99944.25;5027508;28;20184;-75
2021/06/02 11:52:06;;;;;;;4.20;1.15;;;;;;;28.79;23.67;99942.09;5028331;28;20386;-75
2021/06/02 11:54:49;;;;;;;1.58;1.13;;;;;;;28.94;23.03;99949.25;5025299;28;20058;-73
2021/06/02 11:57:22;;;;;;;1.42;1.33;;;;;;;28.79;22.77;99950.34;5029044;28;20112;-75
2021/06/02 11:59:50;;;;;;;4.60;1.30;;;;;;;28.94;21.93;99951.97;5028405;28;20088;-73
2021/06/02 12:02:17;;;;;;;2.25;1.30;;;;;;;28.88;21.81;99953.72;5027548;28;20053;-81
2021/06/02 12:04:44;;;;;;;1.92;1.30;;;;;;;28.84;23.57;99942.31;5027433;28;20150;-76
2021/06/02 12:07:28;;;;;;;1.27;1.15;;;;;;;29.16;23.46;99944.22;5027023;28;20057;-73
2021/06/02 12:09:57;;;;;;;1.75;1.00;;;;;;;29.19;22.78;99946.53;5027334;28;20454;-80